Terminal Aerodrome Forecast
Issued by NWS

Home | Current Version | Previous Version | Text Only | Print | Product List | Glossary On
Versions: 1 2 3 4 5 6 7 8 9 10 11 12 13 14 15 16 17 18 19 20
836
FTUS43 KDVN 160800 AAA
TAFBRL
TAF AMD
KBRL 160800Z 1608/1706 10006KT 1 1/2SM BR VCSH OVC003
     FM161000 10006KT 1SM -FZRA BR OVC002
     FM161300 09007KT 3SM -RA BR OVC002
     FM161500 10009KT 2SM RA BR OVC005
     FM170000 13005KT 1SM -DZ BR OVC003=

USA.gov is the U.S. government's official web portal to all federal, state and local government web resources and services.